Time;durP1;ratioP1;P1;durP2;ratioP2;P2;SDS_P1;SDS_P2;PMS_P1;PMS_P2;Temp;Humidity;BMP_temperature;BMP_pressure;BME280_temperature;BME280_humidity;BME280_pressure;Samples;Min_cycle;Max_cycle;Signal;HPM_P1;HPM_P2
2021/07/02 00:01:36;;;;;;;16.58;10.27;;;23.10;81.30;;;;;;5055987;28;20032;-84
2021/07/02 00:04:02;;;;;;;22.45;12.35;;;23.10;81.40;;;;;;5073937;28;20025;-82
2021/07/02 00:06:27;;;;;;;18.13;10.95;;;23.00;81.50;;;;;;5073684;28;20037;-83
2021/07/02 00:08:53;;;;;;;17.63;9.85;;;23.10;81.70;;;;;;5073916;28;20520;-83
2021/07/02 00:11:19;;;;;;;13.95;10.38;;;23.00;81.70;;;;;;5073691;28;20027;-84
2021/07/02 00:13:44;;;;;;;14.20;10.05;;;23.00;81.80;;;;;;5073905;28;20025;-84
2021/07/02 00:16:10;;;;;;;22.65;9.95;;;23.00;81.90;;;;;;5073900;28;20029;-84
2021/07/02 00:18:36;;;;;;;16.02;9.98;;;23.00;82.10;;;;;;5055684;28;20107;-84
2021/07/02 00:21:02;;;;;;;16.08;10.15;;;23.00;82.20;;;;;;5055755;28;20086;-83
2021/07/02 00:23:28;;;;;;;14.50;9.05;;;23.00;82.20;;;;;;5073628;28;20017;-84
2021/07/02 00:25:54;;;;;;;20.08;10.00;;;23.00;82.40;;;;;;5055704;28;20044;-84
2021/07/02 00:28:20;;;;;;;19.55;10.50;;;22.90;82.40;;;;;;5073650;28;20048;-84
2021/07/02 00:30:45;;;;;;;18.17;10.35;;;23.00;82.50;;;;;;5073381;28;20454;-81
2021/07/02 00:33:11;;;;;;;15.40;9.95;;;22.90;82.40;;;;;;5073291;28;20376;-82
2021/07/02 00:35:37;;;;;;;18.05;10.05;;;22.90;82.60;;;;;;5055339;28;20016;-81
2021/07/02 00:38:03;;;;;;;13.52;9.43;;;22.90;82.60;;;;;;5073221;28;20048;-82
2021/07/02 00:40:29;;;;;;;16.30;9.85;;;22.90;82.60;;;;;;5055010;28;20121;-82
2021/07/02 00:42:54;;;;;;;17.50;10.07;;;22.90;82.60;;;;;;5055190;28;20796;-81
2021/07/02 00:45:20;;;;;;;13.35;9.10;;;22.90;82.60;;;;;;5073081;28;20053;-81
2021/07/02 00:47:46;;;;;;;13.07;10.73;;;22.90;82.60;;;;;;5055007;28;20117;-83
2021/07/02 00:50:12;;;;;;;21.17;10.25;;;22.80;82.60;;;;;;5055245;28;20024;-82
2021/07/02 00:52:38;;;;;;;12.73;9.90;;;22.80;82.60;;;;;;5055285;28;20115;-82
2021/07/02 00:55:04;;;;;;;14.07;9.90;;;22.80;82.70;;;;;;5073064;28;20450;-82
2021/07/02 00:57:30;;;;;;;19.58;10.07;;;22.90;82.80;;;;;;5054786;28;20375;-82
2021/07/02 00:59:56;;;;;;;17.50;9.88;;;22.70;82.70;;;;;;5072961;28;20031;-82
2021/07/02 01:02:21;;;;;;;16.95;9.85;;;22.70;82.80;;;;;;5055097;28;20483;-81
2021/07/02 01:04:47;;;;;;;17.63;9.90;;;22.70;82.80;;;;;;5072474;28;20119;-82
2021/07/02 01:07:14;;;;;;;16.63;10.00;;;22.70;82.90;;;;;;5072874;28;20070;-82
2021/07/02 01:09:44;;;;;;;16.35;9.70;;;22.70;82.90;;;;;;5072792;28;20028;-82
2021/07/02 01:12:11;;;;;;;13.35;9.60;;;22.70;83.10;;;;;;5054826;28;20027;-82
2021/07/02 01:14:38;;;;;;;16.45;10.13;;;22.60;83.10;;;;;;5054714;28;20390;-83
2021/07/02 01:17:04;;;;;;;15.52;9.48;;;22.60;83.20;;;;;;5054813;28;20064;-82
2021/07/02 01:19:30;;;;;;;17.90;10.23;;;22.60;83.30;;;;;;5073178;28;20031;-82
2021/07/02 01:21:56;;;;;;;14.73;10.25;;;22.60;83.40;;;;;;5072809;28;20541;-82
2021/07/02 01:24:23;;;;;;;16.08;9.48;;;22.50;83.40;;;;;;5072699;28;20029;-83
2021/07/02 01:26:51;;;;;;;11.50;9.80;;;22.60;83.60;;;;;;5072928;28;20031;-82
2021/07/02 01:29:18;;;;;;;17.40;10.18;;;22.50;83.90;;;;;;5074213;28;20052;-82
2021/07/02 01:31:44;;;;;;;16.95;10.10;;;22.50;83.70;;;;;;5076237;28;20074;-82
2021/07/02 01:34:10;;;;;;;21.60;10.43;;;22.50;83.80;;;;;;5076624;28;20033;-82
2021/07/02 01:36:35;;;;;;;13.73;10.30;;;22.50;83.80;;;;;;5076397;28;20021;-82
2021/07/02 01:39:02;;;;;;;12.50;9.65;;;22.50;83.90;;;;;;5058213;28;20387;-82
2021/07/02 01:41:29;;;;;;;15.45;10.02;;;22.40;83.90;;;;;;5076116;28;20021;-82
2021/07/02 01:43:54;;;;;;;18.42;9.65;;;22.40;84.00;;;;;;5075720;28;20044;-82
2021/07/02 01:46:20;;;;;;;13.40;10.25;;;22.40;84.00;;;;;;5076007;28;20036;-82
2021/07/02 01:48:46;;;;;;;15.48;10.02;;;22.40;84.00;;;;;;5076044;28;20028;-82
2021/07/02 01:51:12;;;;;;;16.13;10.23;;;22.40;84.00;;;;;;5076129;28;20032;-82
2021/07/02 01:53:38;;;;;;;17.73;10.30;;;22.50;84.10;;;;;;5075821;28;20776;-82
2021/07/02 01:56:04;;;;;;;18.50;10.80;;;22.50;84.10;;;;;;5076073;28;20042;-82
2021/07/02 01:58:30;;;;;;;12.98;10.20;;;22.50;84.10;;;;;;5076148;28;20031;-82
2021/07/02 02:00:56;;;;;;;15.55;10.27;;;22.50;84.60;;;;;;5076083;28;20024;-82
2021/07/02 02:03:21;;;;;;;19.27;10.98;;;22.50;83.90;;;;;;5076117;28;20036;-85
2021/07/02 02:05:48;;;;;;;14.75;10.57;;;22.50;83.80;;;;;;5058061;28;20060;-84
2021/07/02 02:08:15;;;;;;;14.02;9.48;;;22.60;83.70;;;;;;5058156;28;20088;-84
2021/07/02 02:10:40;;;;;;;12.75;9.95;;;22.60;83.80;;;;;;5058123;28;20021;-85
2021/07/02 02:13:06;;;;;;;12.98;9.52;;;22.70;83.60;;;;;;5058504;28;20068;-84
2021/07/02 02:15:32;;;;;;;17.55;10.40;;;22.90;83.30;;;;;;5077075;28;20356;-84
2021/07/02 02:17:58;;;;;;;13.73;9.20;;;23.10;82.80;;;;;;5058149;28;20027;-84
2021/07/02 02:20:24;;;;;;;17.88;8.98;;;23.30;82.10;;;;;;5075893;28;20020;-84
2021/07/02 02:22:50;;;;;;;11.55;8.57;;;23.60;81.40;;;;;;5075566;28;20025;-83
2021/07/02 02:25:15;;;;;;;15.15;8.60;;;23.80;80.50;;;;;;5074675;28;20025;-82
2021/07/02 02:27:41;;;;;;;14.68;8.80;;;24.00;79.70;;;;;;5075240;28;20020;-82
2021/07/02 02:30:08;;;;;;;13.57;8.88;;;24.30;78.80;;;;;;5075284;28;20028;-82
2021/07/02 02:32:35;;;;;;;15.85;8.65;;;24.60;77.80;;;;;;5057550;28;20017;-82
2021/07/02 02:35:01;;;;;;;11.98;7.72;;;25.00;76.90;;;;;;5075498;28;20021;-82
2021/07/02 02:37:27;;;;;;;14.40;8.25;;;25.30;75.90;;;;;;5057657;28;20025;-83
2021/07/02 02:39:53;;;;;;;13.77;8.27;;;25.60;74.80;;;;;;5075452;28;20371;-82
2021/07/02 02:42:19;;;;;;;13.50;8.18;;;25.90;73.70;;;;;;5075274;28;20468;-83
2021/07/02 02:44:44;;;;;;;15.48;7.88;;;26.30;72.70;;;;;;5075230;28;20108;-83
2021/07/02 02:47:10;;;;;;;18.30;8.02;;;26.60;71.60;;;;;;5057556;28;20060;-83
2021/07/02 02:49:36;;;;;;;11.77;7.32;;;27.00;70.60;;;;;;5057490;28;20095;-82
2021/07/02 02:52:02;;;;;;;11.00;7.22;;;27.40;69.60;;;;;;5075280;28;20467;-83
2021/07/02 02:54:28;;;;;;;15.55;7.45;;;27.70;68.50;;;;;;5057531;28;20048;-83
2021/07/02 02:57:07;;;;;;;12.90;7.40;;;28.10;67.50;;;;;;5057833;28;20386;-83
2021/07/02 02:59:34;;;;;;;13.10;7.32;;;28.40;66.70;;;;;;5074402;28;20025;-83
2021/07/02 03:02:00;;;;;;;12.38;7.28;;;28.80;65.80;;;;;;5074421;28;20024;-83
2021/07/02 03:04:26;;;;;;;16.23;7.80;;;29.20;64.80;;;;;;5074582;28;20033;-82
2021/07/02 03:06:52;;;;;;;10.45;7.30;;;29.60;63.80;;;;;;5056415;28;20035;-83
2021/07/02 03:09:18;;;;;;;11.20;7.18;;;29.90;62.80;;;;;;5074141;28;20103;-82
2021/07/02 03:11:45;;;;;;;11.25;7.45;;;30.30;62.10;;;;;;5073719;28;20024;-82
2021/07/02 03:14:13;;;;;;;9.93;7.30;;;30.70;61.20;;;;;;5073863;28;20017;-82
2021/07/02 03:16:39;;;;;;;10.57;7.55;;;31.00;60.40;;;;;;5073713;28;20074;-82
2021/07/02 03:19:04;;;;;;;10.68;7.18;;;31.40;59.80;;;;;;5073886;28;20028;-82
2021/07/02 03:21:30;;;;;;;8.25;7.43;;;31.80;58.90;;;;;;5055897;28;20028;-82
2021/07/02 03:23:56;;;;;;;9.45;7.38;;;32.20;58.00;;;;;;5074027;28;20035;-82
2021/07/02 03:26:22;;;;;;;14.63;9.38;;;32.70;57.20;;;;;;5074029;28;20668;-82
2021/07/02 03:28:48;;;;;;;16.10;8.00;;;33.10;56.40;;;;;;5073369;28;20028;-82
2021/07/02 03:31:13;;;;;;;11.38;7.65;;;33.50;55.90;;;;;;5073356;28;20020;-82
2021/07/02 03:33:39;;;;;;;14.13;7.88;;;34.00;55.00;;;;;;5073610;28;20063;-82
2021/07/02 03:36:05;;;;;;;14.63;8.00;;;34.40;54.20;;;;;;5073605;28;20092;-82
2021/07/02 03:38:30;;;;;;;11.65;8.13;;;34.80;53.40;;;;;;5073314;28;20017;-82
2021/07/02 03:40:56;;;;;;;20.38;8.57;;;35.10;52.70;;;;;;5073640;28;20056;-82
2021/07/02 03:43:23;;;;;;;11.18;8.15;;;35.30;52.20;;;;;;5073230;28;20066;-82
2021/07/02 03:45:49;;;;;;;10.85;8.13;;;35.40;51.50;;;;;;5073009;28;20417;-82
2021/07/02 03:48:15;;;;;;;11.77;7.97;;;35.40;51.40;;;;;;5055173;28;20032;-82
2021/07/02 03:50:40;;;;;;;9.80;7.70;;;35.70;51.30;;;;;;5073102;28;20036;-81
2021/07/02 03:53:06;;;;;;;11.13;8.65;;;36.10;50.90;;;;;;5072643;28;20081;-83
2021/07/02 03:55:32;;;;;;;11.60;8.50;;;36.50;50.30;;;;;;5055498;28;20548;-83
2021/07/02 03:57:58;;;;;;;10.80;8.25;;;37.00;49.70;;;;;;5073301;28;20112;-83
2021/07/02 04:00:23;;;;;;;11.55;8.27;;;37.30;49.20;;;;;;5072998;28;20028;-82
2021/07/02 04:02:52;;;;;;;11.73;8.50;;;37.70;48.60;;;;;;5055211;28;20851;-84
2021/07/02 04:05:18;;;;;;;17.33;8.57;;;38.10;48.10;;;;;;5055330;28;20029;-82
2021/07/02 04:07:44;;;;;;;13.45;8.20;;;38.40;47.50;;;;;;5072975;28;20039;-83
2021/07/02 04:10:10;;;;;;;8.82;8.00;;;38.80;46.90;;;;;;5073773;28;20028;-84
2021/07/02 04:12:35;;;;;;;11.15;8.25;;;39.00;46.50;;;;;;5073237;28;20025;-83
2021/07/02 04:15:01;;;;;;;14.48;8.65;;;39.40;46.10;;;;;;5072854;28;20771;-86
2021/07/02 04:17:27;;;;;;;13.20;8.00;;;39.70;45.70;;;;;;5073559;28;20673;-83
2021/07/02 04:19:53;;;;;;;10.00;8.63;;;39.90;45.30;;;;;;5073281;28;20031;-84
2021/07/02 04:22:18;;;;;;;17.10;10.00;;;40.20;45.00;;;;;;5073344;28;20029;-84
2021/07/02 04:24:44;;;;;;;9.60;8.60;;;40.40;44.60;;;;;;5073156;28;20416;-84
2021/07/02 04:27:11;;;;;;;14.13;8.20;;;40.60;44.40;;;;;;5055341;28;20082;-84
2021/07/02 04:29:37;;;;;;;14.23;9.05;;;40.80;44.10;;;;;;5072376;28;20032;-84
2021/07/02 04:32:03;;;;;;;12.38;9.05;;;41.00;43.60;;;;;;5055368;28;20435;-86
2021/07/02 04:34:29;;;;;;;9.70;8.70;;;41.30;43.40;;;;;;5073157;28;20052;-86
2021/07/02 04:36:54;;;;;;;12.38;9.20;;;41.50;43.20;;;;;;5073124;28;20052;-85
2021/07/02 04:39:21;;;;;;;13.93;9.15;;;41.70;43.10;;;;;;5055528;28;20032;-85
2021/07/02 04:41:47;;;;;;;12.32;9.32;;;41.90;42.60;;;;;;5071673;28;20215;-84
2021/07/02 04:44:13;;;;;;;12.68;9.25;;;42.20;42.50;;;;;;5072483;28;20095;-84
2021/07/02 04:46:38;;;;;;;10.65;9.30;;;42.30;42.20;;;;;;5072886;28;20028;-86
2021/07/02 04:49:04;;;;;;;12.18;9.27;;;42.40;41.90;;;;;;5072667;28;20078;-84
2021/07/02 04:51:30;;;;;;;10.55;9.45;;;42.50;41.90;;;;;;5072691;28;20017;-82
2021/07/02 04:53:56;;;;;;;15.63;9.95;;;42.60;41.60;;;;;;5071738;28;20044;-81
2021/07/02 04:56:21;;;;;;;13.00;10.77;;;42.80;41.40;;;;;;5071524;28;20024;-82
2021/07/02 04:58:54;;;;;;;13.88;9.35;;;42.80;41.30;;;;;;5053979;28;20109;-81
2021/07/02 05:01:21;;;;;;;11.38;10.05;;;43.00;41.30;;;;;;5071902;28;20017;-82
2021/07/02 05:03:47;;;;;;;13.05;9.55;;;43.20;41.20;;;;;;5072477;28;20082;-82
2021/07/02 05:06:13;;;;;;;14.68;10.73;;;43.30;41.00;;;;;;5075596;28;20104;-83
2021/07/02 05:08:40;;;;;;;14.07;9.13;;;43.70;40.90;;;;;;5058334;28;20111;-82
2021/07/02 05:11:07;;;;;;;14.80;10.18;;;43.70;40.50;;;;;;5057302;28;20029;-82
2021/07/02 05:13:33;;;;;;;12.63;10.82;;;43.90;40.50;;;;;;5075211;28;20024;-82
2021/07/02 05:15:58;;;;;;;12.38;10.18;;;43.90;40.30;;;;;;5075474;28;20374;-82
2021/07/02 05:18:24;;;;;;;12.48;10.18;;;44.10;40.20;;;;;;5075058;28;20459;-83
2021/07/02 05:20:50;;;;;;;27.80;10.40;;;44.30;40.20;;;;;;5075297;28;20099;-82
2021/07/02 05:23:15;;;;;;;15.15;10.05;;;44.60;40.10;;;;;;5075323;28;20024;-82
2021/07/02 05:25:41;;;;;;;13.95;9.77;;;44.90;39.90;;;;;;5075281;28;20078;-82
2021/07/02 05:28:07;;;;;;;11.48;10.27;;;45.30;39.50;;;;;;5057445;28;20082;-83
2021/07/02 05:30:33;;;;;;;16.13;10.63;;;45.60;39.20;;;;;;5075125;28;20435;-84
2021/07/02 05:32:59;;;;;;;14.23;10.10;;;45.80;39.00;;;;;;5076310;28;20034;-84
2021/07/02 05:35:25;;;;;;;13.43;10.90;;;46.00;38.80;;;;;;5074542;28;20052;-81
2021/07/02 05:37:50;;;;;;;12.45;11.15;;;46.20;38.60;;;;;;5056393;28;20024;-79
2021/07/02 05:40:17;;;;;;;14.30;11.40;;;46.30;38.40;;;;;;5074602;28;20508;-79
2021/07/02 05:42:43;;;;;;;14.57;10.98;;;46.40;38.30;;;;;;5074092;28;20021;-80
2021/07/02 05:45:10;;;;;;;13.57;11.25;;;46.50;38.20;;;;;;5074336;28;20025;-80
2021/07/02 05:47:49;;;;;;;17.00;11.50;;;46.60;38.00;;;;;;5074609;28;20101;-87
2021/07/02 05:50:16;;;;;;;13.67;10.63;;;46.60;37.80;;;;;;5079664;28;20052;-88
2021/07/02 05:52:42;;;;;;;19.15;10.82;;;46.70;37.90;;;;;;5077053;28;20790;-89
2021/07/02 05:55:08;;;;;;;11.60;10.50;;;46.70;37.80;;;;;;5077670;28;20049;-88
2021/07/02 05:57:37;;;;;;;14.43;11.05;;;46.50;37.90;;;;;;5079376;28;20385;-88
2021/07/02 06:00:04;;;;;;;18.65;11.77;;;46.60;38.00;;;;;;5076896;28;20150;-88
2021/07/02 06:02:30;;;;;;;13.38;11.07;;;46.70;37.90;;;;;;5077798;28;20021;-88
2021/07/02 06:04:55;;;;;;;11.55;10.45;;;46.90;37.80;;;;;;5076540;28;20036;-90
2021/07/02 06:07:21;;;;;;;13.75;10.38;;;47.20;37.60;;;;;;5076281;28;20103;-88
2021/07/02 06:09:47;;;;;;;15.98;9.55;;;47.30;37.50;;;;;;5075925;28;20032;-89
2021/07/02 06:12:12;;;;;;;10.35;8.63;;;47.40;37.10;;;;;;5076618;28;20025;-89
2021/07/02 06:14:38;;;;;;;13.50;9.35;;;47.60;37.00;;;;;;5057495;28;20027;-92
2021/07/02 06:17:04;;;;;;;17.40;9.73;;;47.80;36.70;;;;;;5074865;28;20426;-82
2021/07/02 06:19:29;;;;;;;13.38;9.00;;;48.00;36.50;;;;;;5056085;28;20025;-81
2021/07/02 06:21:55;;;;;;;13.05;8.25;;;48.20;36.20;;;;;;5073455;28;20037;-80
2021/07/02 06:24:21;;;;;;;11.65;7.43;;;48.40;35.90;;;;;;5073417;28;20025;-81
2021/07/02 06:26:46;;;;;;;11.40;8.13;;;48.50;35.60;;;;;;5073459;28;20028;-81
2021/07/02 06:29:12;;;;;;;10.25;8.32;;;48.60;35.40;;;;;;5073227;28;20042;-80
2021/07/02 06:31:38;;;;;;;10.73;8.07;;;48.90;35.40;;;;;;5073242;28;20491;-78
2021/07/02 06:34:04;;;;;;;11.48;7.15;;;49.00;35.10;;;;;;5073325;28;20426;-78
2021/07/02 06:36:30;;;;;;;10.38;7.45;;;49.00;34.80;;;;;;5073509;28;20031;-78
2021/07/02 06:38:55;;;;;;;8.90;7.78;;;49.00;34.50;;;;;;5073165;28;20029;-78
2021/07/02 06:41:21;;;;;;;12.52;7.60;;;48.80;34.50;;;;;;5072999;28;20103;-80
2021/07/02 06:43:47;;;;;;;10.25;7.88;;;48.60;34.50;;;;;;5073386;28;20033;-78
2021/07/02 06:46:13;;;;;;;9.48;7.20;;;48.40;34.60;;;;;;5073447;28;20032;-78
2021/07/02 06:48:39;;;;;;;14.35;8.02;;;48.20;34.30;;;;;;5073026;28;20036;-78
2021/07/02 06:51:05;;;;;;;8.65;7.55;;;48.10;34.50;;;;;;5073096;28;20021;-84
2021/07/02 06:53:30;;;;;;;9.48;7.18;;;48.00;34.70;;;;;;5072956;28;20401;-79
2021/07/02 06:55:56;;;;;;;10.68;7.63;;;48.10;35.00;;;;;;5073121;28;20020;-79
2021/07/02 06:58:22;;;;;;;10.57;8.13;;;48.00;34.90;;;;;;5073018;28;20024;-78
2021/07/02 07:00:48;;;;;;;11.18;7.63;;;47.90;34.70;;;;;;5072812;28;20463;-78
2021/07/02 07:03:14;;;;;;;12.82;7.53;;;47.90;34.90;;;;;;5054715;28;20111;-78
2021/07/02 07:05:40;;;;;;;12.40;7.43;;;47.80;35.00;;;;;;5072705;28;20028;-79
2021/07/02 07:08:09;;;;;;;11.10;7.63;;;47.80;35.70;;;;;;5072904;28;20033;-79
2021/07/02 07:10:37;;;;;;;12.45;7.70;;;47.80;35.00;;;;;;5072831;28;20021;-78
2021/07/02 07:13:05;;;;;;;11.30;8.48;;;47.60;35.30;;;;;;5072490;28;20086;-78
2021/07/02 07:15:32;;;;;;;8.82;7.43;;;47.40;35.60;;;;;;5072844;28;20023;-79
2021/07/02 07:17:57;;;;;;;11.07;8.00;;;47.10;35.30;;;;;;5072565;28;20017;-78
2021/07/02 07:20:23;;;;;;;17.40;9.35;;;46.70;35.40;;;;;;5072367;28;20074;-80
2021/07/02 07:22:49;;;;;;;13.93;8.23;;;46.40;35.70;;;;;;5072403;28;20343;-79
2021/07/02 07:25:16;;;;;;;15.93;9.18;;;46.00;35.80;;;;;;5054647;28;20032;-79
2021/07/02 07:27:44;;;;;;;12.43;7.90;;;45.80;36.30;;;;;;5053518;28;20028;-79
2021/07/02 07:30:10;;;;;;;16.25;9.73;;;45.60;36.60;;;;;;5054254;28;20383;-79
2021/07/02 07:32:37;;;;;;;14.07;8.70;;;45.40;36.90;;;;;;5072213;28;20063;-79
2021/07/02 07:35:15;;;;;;;14.63;9.82;;;45.20;37.20;;;;;;5072196;28;20370;-78
2021/07/02 07:37:41;;;;;;;12.82;8.32;;;45.00;37.30;;;;;;5072082;28;20016;-79
2021/07/02 07:40:07;;;;;;;17.33;8.73;;;44.90;37.50;;;;;;5071872;28;20836;-79
2021/07/02 07:42:33;;;;;;;11.10;7.75;;;44.70;37.80;;;;;;5054051;28;20032;-80
2021/07/02 07:44:58;;;;;;;10.43;8.27;;;44.60;37.80;;;;;;5071976;28;20032;-80
2021/07/02 07:47:24;;;;;;;10.95;8.38;;;44.30;37.80;;;;;;5072089;28;20036;-80
2021/07/02 07:49:50;;;;;;;12.77;9.02;;;44.10;38.10;;;;;;5071555;28;20033;-79
2021/07/02 07:52:25;;;;;;;15.05;8.52;;;43.90;38.40;;;;;;5071598;28;20359;-78
2021/07/02 07:54:51;;;;;;;15.82;10.50;;;43.80;38.60;;;;;;5071872;28;20052;-79
2021/07/02 07:57:17;;;;;;;16.95;8.02;;;43.80;38.60;;;;;;5072281;28;20051;-80
2021/07/02 07:59:43;;;;;;;12.63;7.93;;;43.80;38.40;;;;;;5071524;28;20021;-79
2021/07/02 08:02:08;;;;;;;9.40;8.40;;;43.50;38.20;;;;;;5071583;28;20387;-79
2021/07/02 08:04:34;;;;;;;20.48;8.80;;;43.20;38.40;;;;;;5071612;28;20032;-80
2021/07/02 08:07:00;;;;;;;10.90;8.20;;;42.70;38.90;;;;;;5071583;28;20040;-84
2021/07/02 08:09:27;;;;;;;11.38;8.30;;;42.30;39.00;;;;;;5071536;28;20558;-79
2021/07/02 08:11:52;;;;;;;14.57;9.05;;;42.10;39.30;;;;;;5071364;28;20032;-78
2021/07/02 08:14:18;;;;;;;13.52;7.80;;;41.80;39.50;;;;;;5071531;28;20383;-83
2021/07/02 08:16:44;;;;;;;13.27;8.57;;;41.30;39.60;;;;;;5071680;28;20027;-82
2021/07/02 08:19:10;;;;;;;16.45;8.27;;;41.00;40.20;;;;;;5071776;28;20093;-83
2021/07/02 08:21:36;;;;;;;12.50;7.70;;;40.70;40.70;;;;;;5072157;28;20020;-83
2021/07/02 08:24:01;;;;;;;11.48;8.40;;;40.50;41.10;;;;;;5071275;28;20021;-83
2021/07/02 08:26:27;;;;;;;10.57;8.55;;;40.30;41.70;;;;;;5071838;28;20078;-83
2021/07/02 08:31:38;;;;;;;14.32;9.00;;;40.00;42.80;;;;;;5072030;28;20035;-84
2021/07/02 08:34:04;;;;;;;12.57;8.70;;;39.80;42.40;;;;;;5071635;28;20095;-84
2021/07/02 08:36:30;;;;;;;13.52;8.80;;;39.60;42.70;;;;;;5053438;28;20024;-83
2021/07/02 08:38:55;;;;;;;12.32;8.60;;;39.40;42.80;;;;;;5071769;28;20390;-84
2021/07/02 08:41:21;;;;;;;11.13;7.78;;;39.00;43.50;;;;;;5071670;28;20108;-82
2021/07/02 08:43:47;;;;;;;12.80;9.10;;;38.90;43.70;;;;;;5073032;28;20025;-83
2021/07/02 08:46:16;;;;;;;11.25;8.45;;;38.90;43.60;;;;;;5071855;28;20086;-81
2021/07/02 08:48:46;;;;;;;11.30;7.90;;;38.80;43.30;;;;;;5071391;28;20031;-78
2021/07/02 08:51:12;;;;;;;11.38;8.18;;;38.80;43.40;;;;;;5070909;28;20075;-78
2021/07/02 08:53:38;;;;;;;13.13;8.07;;;38.80;43.40;;;;;;5071052;28;20059;-79
2021/07/02 08:56:05;;;;;;;10.95;7.97;;;38.80;43.40;;;;;;5070980;28;20027;-80
2021/07/02 08:58:31;;;;;;;9.98;7.90;;;38.70;43.50;;;;;;5071102;28;20016;-79
2021/07/02 09:00:58;;;;;;;9.43;7.88;;;38.60;43.40;;;;;;5071062;28;20028;-79
2021/07/02 09:03:30;;;;;;;18.33;9.82;;;38.60;43.50;;;;;;5070833;28;20020;-80
2021/07/02 09:06:19;;;;;;;9.75;7.95;;;38.40;43.90;;;;;;5070707;28;20119;-80
2021/07/02 09:09:04;;;;;;;12.68;8.15;;;38.30;44.30;;;;;;5071176;28;20463;-80
2021/07/02 09:11:32;;;;;;;12.05;8.20;;;38.30;44.20;;;;;;5070795;28;20024;-80
2021/07/02 09:13:58;;;;;;;8.73;7.75;;;38.40;44.20;;;;;;5070718;28;20016;-79
2021/07/02 09:16:25;;;;;;;9.00;8.10;;;38.40;44.10;;;;;;5052531;28;20016;-79
2021/07/02 09:18:51;;;;;;;15.82;8.43;;;38.30;44.20;;;;;;5069240;28;20021;-79
2021/07/02 09:21:30;;;;;;;10.80;8.10;;;38.40;44.20;;;;;;5071013;28;20090;-79
2021/07/02 09:23:58;;;;;;;15.07;8.73;;;38.30;43.90;;;;;;5070798;28;20032;-79
2021/07/02 09:26:39;;;;;;;13.57;8.57;;;38.10;44.30;;;;;;5070179;28;20028;-79
2021/07/02 09:29:23;;;;;;;11.25;8.10;;;37.80;44.90;;;;;;5070753;28;20027;-79
2021/07/02 09:32:15;;;;;;;9.10;8.30;;;37.70;46.10;;;;;;5070943;28;20087;-79
2021/07/02 09:34:50;;;;;;;10.38;8.13;;;37.70;46.90;;;;;;5065949;28;20132;-79
2021/07/02 09:37:33;;;;;;;11.88;8.20;;;37.50;47.40;;;;;;5070759;28;20027;-78
2021/07/02 09:40:19;;;;;;;8.82;7.88;;;37.40;47.90;;;;;;5070409;28;20418;-78
2021/07/02 09:42:46;;;;;;;14.68;13.05;;;37.50;47.90;;;;;;5070671;28;20497;-79
2021/07/02 09:45:15;;;;;;;15.85;13.07;;;37.70;48.10;;;;;;5052380;28;20028;-80
2021/07/02 09:47:44;;;;;;;10.05;8.73;;;37.70;48.10;;;;;;5070501;28;20020;-78
2021/07/02 09:50:20;;;;;;;16.88;9.73;;;37.60;48.30;;;;;;5071594;28;20035;-81
2021/07/02 09:53:09;;;;;;;10.23;9.23;;;37.40;48.80;;;;;;5056296;28;20769;-78
2021/07/02 09:55:53;;;;;;;9.68;8.35;;;36.70;48.70;;;;;;5074118;28;20059;-80
2021/07/02 09:58:21;;;;;;;15.07;11.57;;;35.80;49.70;;;;;;5073904;28;20016;-80
2021/07/02 10:00:49;;;;;;;15.40;10.43;;;35.10;51.10;;;;;;5074029;28;20058;-80
2021/07/02 10:03:16;;;;;;;12.45;9.82;;;34.40;52.30;;;;;;5073951;28;20036;-80
2021/07/02 10:06:00;;;;;;;13.25;10.27;;;34.10;53.50;;;;;;5074727;28;20533;-79
2021/07/02 10:08:31;;;;;;;14.48;10.20;;;34.00;54.10;;;;;;5073862;28;20086;-80
2021/07/02 10:10:58;;;;;;;20.55;10.15;;;33.90;54.40;;;;;;5073520;28;20020;-80
2021/07/02 10:13:26;;;;;;;10.25;9.20;;;33.80;54.80;;;;;;5073921;28;20016;-79
2021/07/02 10:15:53;;;;;;;13.65;9.48;;;33.80;55.20;;;;;;5055614;28;20727;-79
2021/07/02 10:18:24;;;;;;;13.82;9.57;;;33.90;54.90;;;;;;5073430;28;20020;-80
2021/07/02 10:20:51;;;;;;;14.23;10.32;;;33.90;54.90;;;;;;5056147;28;20028;-80
2021/07/02 10:23:26;;;;;;;12.93;9.93;;;34.00;55.00;;;;;;5074087;28;20024;-81
2021/07/02 10:25:53;;;;;;;25.30;21.20;;;34.10;55.30;;;;;;5074024;28;20055;-81
2021/07/02 10:28:21;;;;;;;11.90;9.93;;;34.30;55.50;;;;;;5073670;28;20411;-82
2021/07/02 10:30:48;;;;;;;10.98;9.40;;;34.40;55.10;;;;;;5055864;28;20123;-80
2021/07/02 10:33:15;;;;;;;12.23;9.75;;;34.50;54.80;;;;;;5055721;28;20021;-80
2021/07/02 10:35:47;;;;;;;10.77;9.70;;;34.50;54.70;;;;;;5073177;28;20017;-80
2021/07/02 10:38:13;;;;;;;12.30;9.55;;;34.60;54.40;;;;;;5073306;28;20025;-80
2021/07/02 10:40:45;;;;;;;11.02;9.18;;;34.50;54.10;;;;;;5073004;28;20017;-78
2021/07/02 10:43:23;;;;;;;12.63;9.18;;;34.60;54.30;;;;;;5073342;28;20035;-79
2021/07/02 10:46:24;;;;;;;10.82;9.68;;;34.80;54.40;;;;;;5055376;28;20433;-78
2021/07/02 10:48:51;;;;;;;14.48;9.88;;;34.80;53.60;;;;;;4972167;28;20049;-80
2021/07/02 10:51:32;;;;;;;14.57;9.30;;;34.80;53.50;;;;;;5052346;28;20059;-81
2021/07/02 10:54:16;;;;;;;15.00;9.43;;;34.80;53.30;;;;;;5073105;28;20125;-80
2021/07/02 10:57:01;;;;;;;12.05;9.85;;;34.70;52.80;;;;;;5072697;28;20027;-79
2021/07/02 10:59:40;;;;;;;15.43;10.15;;;34.60;53.60;;;;;;5072934;28;20048;-80
2021/07/02 11:02:06;;;;;;;12.93;10.00;;;34.50;54.50;;;;;;5071714;28;20417;-78
2021/07/02 11:04:36;;;;;;;13.85;10.15;;;34.50;54.60;;;;;;5072862;28;20024;-77
2021/07/02 11:07:12;;;;;;;12.85;10.35;;;34.50;54.70;;;;;;5072778;28;20024;-78
2021/07/02 11:09:56;;;;;;;11.73;10.07;;;34.40;54.80;;;;;;5072758;28;20107;-81
2021/07/02 11:12:58;;;;;;;11.85;9.90;;;34.40;55.00;;;;;;5072592;28;20017;-80
2021/07/02 11:15:24;;;;;;;13.52;10.52;;;34.20;55.30;;;;;;5051229;28;20032;-79
2021/07/02 11:18:08;;;;;;;12.25;9.80;;;33.70;55.00;;;;;;5072493;28;20123;-77
2021/07/02 11:20:34;;;;;;;11.88;10.05;;;33.30;55.60;;;;;;5072646;28;20048;-77
2021/07/02 11:22:59;;;;;;;13.93;10.30;;;33.10;56.40;;;;;;5072360;28;20129;-77
2021/07/02 11:25:35;;;;;;;12.70;10.65;;;33.10;56.80;;;;;;5072637;28;20025;-78
2021/07/02 11:28:11;;;;;;;12.40;9.73;;;33.10;56.40;;;;;;5072136;28;20028;-77
2021/07/02 11:30:44;;;;;;;17.17;10.35;;;33.10;56.70;;;;;;5072048;28;20031;-76
2021/07/02 11:33:10;;;;;;;16.85;9.88;;;33.20;57.10;;;;;;5072003;28;20042;-76
2021/07/02 11:35:43;;;;;;;12.13;9.52;;;33.30;57.00;;;;;;5072081;28;20414;-76
2021/07/02 11:38:16;;;;;;;12.90;10.18;;;33.40;57.10;;;;;;5072199;28;20021;-77
2021/07/02 11:40:52;;;;;;;11.05;9.85;;;33.30;57.00;;;;;;5053482;28;20475;-76
2021/07/02 11:43:35;;;;;;;12.85;10.25;;;33.30;57.00;;;;;;5072270;28;20036;-76
2021/07/02 11:46:05;;;;;;;12.80;9.82;;;33.20;57.00;;;;;;5071623;28;20100;-77
2021/07/02 11:48:34;;;;;;;12.70;9.93;;;33.00;57.10;;;;;;5071859;28;20024;-77
2021/07/02 11:51:02;;;;;;;11.18;10.00;;;33.10;57.10;;;;;;5071680;28;20119;-77
2021/07/02 11:53:44;;;;;;;13.35;10.27;;;33.20;56.70;;;;;;5071716;28;20052;-76
2021/07/02 11:56:12;;;;;;;11.50;9.63;;;33.10;56.30;;;;;;5072080;28;20031;-76
2021/07/02 11:58:39;;;;;;;14.00;9.70;;;33.10;56.50;;;;;;5071399;28;20501;-76
2021/07/02 12:01:10;;;;;;;16.20;13.82;;;33.10;56.90;;;;;;5072259;28;20025;-78
2021/07/02 12:03:37;;;;;;;17.45;9.65;;;33.20;57.40;;;;;;5071916;28;20020;-76
2021/07/02 12:06:04;;;;;;;13.07;9.90;;;33.30;57.30;;;;;;5071654;28;20024;-76
2021/07/02 12:08:34;;;;;;;18.95;10.27;;;33.30;57.20;;;;;;5071598;28;20028;-76
2021/07/02 12:11:03;;;;;;;13.75;10.13;;;33.30;57.00;;;;;;5071415;28;20028;-75
2021/07/02 12:13:31;;;;;;;12.40;9.55;;;33.30;57.00;;;;;;5071045;28;20103;-76
2021/07/02 12:16:05;;;;;;;14.65;10.07;;;33.30;57.00;;;;;;5071424;28;20082;-75
2021/07/02 12:18:32;;;;;;;14.18;9.90;;;33.30;57.30;;;;;;5071371;28;20066;-75
2021/07/02 12:21:09;;;;;;;12.73;9.85;;;33.40;57.20;;;;;;5071517;28;20096;-74
2021/07/02 12:23:37;;;;;;;14.50;9.00;;;33.50;56.80;;;;;;5071233;28;20499;-76
2021/07/02 12:26:15;;;;;;;12.38;10.05;;;33.60;56.40;;;;;;5070976;28;20051;-75
2021/07/02 12:29:13;;;;;;;12.15;9.35;;;33.70;56.00;;;;;;5070980;28;20025;-75
2021/07/02 12:31:42;;;;;;;19.67;9.52;;;33.90;55.70;;;;;;5070397;28;20040;-75
2021/07/02 12:34:39;;;;;;;10.70;8.75;;;33.90;55.50;;;;;;5071294;28;20112;-75
2021/07/02 12:37:07;;;;;;;13.48;9.38;;;34.00;55.60;;;;;;5036179;28;20097;-75
2021/07/02 12:39:37;;;;;;;10.82;9.00;;;34.00;55.30;;;;;;5071269;28;20091;-76
2021/07/02 12:42:10;;;;;;;12.02;8.73;;;34.00;55.10;;;;;;5071324;28;20039;-75
2021/07/02 12:44:37;;;;;;;15.60;8.80;;;34.00;55.00;;;;;;5071165;28;20023;-75